Time,TemperatureF,DewpointF,PressureIn,WindDirection,WindDirectionDegrees,WindSpeedMPH,WindSpeedGustMPH,Humidity,HourlyPrecipIn,Conditions,Clouds,dailyrainin,SoftwareType,DateUTC
2013-08-16 00:01:00,59.9,51.3,30.12,WSW,248,0.0,0.9,73,0.00,,,0.00,WUHU216HW,2013-08-16 04:01:00,
2013-08-16 00:06:00,59.8,51.5,30.12,WSW,248,0.0,0.7,74,0.00,,,0.00,WUHU216HW,2013-08-16 04:06:00,
2013-08-16 00:11:00,59.6,51.3,30.12,SW,225,0.0,0.2,74,0.00,,,0.00,WUHU216HW,2013-08-16 04:11:00,
2013-08-16 00:16:00,59.4,51.1,30.12,SSW,203,0.0,0.0,74,0.00,,,0.00,WUHU216HW,2013-08-16 04:16:00,
2013-08-16 00:21:00,59.2,50.9,30.12,SSE,158,0.0,0.0,74,0.00,,,0.00,WUHU216HW,2013-08-16 04:21:00,
2013-08-16 00:26:00,59.0,51.1,30.12,SW,225,0.0,0.0,75,0.00,,,0.00,WUHU216HW,2013-08-16 04:26:00,
2013-08-16 00:31:00,59.0,51.1,30.12,SW,225,0.7,1.1,75,0.00,,,0.00,WUHU216HW,2013-08-16 04:31:00,
2013-08-16 00:36:00,58.9,50.9,30.12,SSW,203,0.2,1.3,75,0.00,,,0.00,WUHU216HW,2013-08-16 04:36:00,
2013-08-16 00:41:00,58.7,50.8,30.12,WSW,248,1.3,1.8,75,0.00,,,0.00,WUHU216HW,2013-08-16 04:41:00,
2013-08-16 00:46:00,58.7,51.1,30.12,WSW,248,1.1,1.8,76,0.00,,,0.00,WUHU216HW,2013-08-16 04:46:00,
2013-08-16 00:51:00,58.7,51.1,30.12,WSW,248,0.9,1.8,76,0.00,,,0.00,WUHU216HW,2013-08-16 04:51:00,
2013-08-16 00:56:00,58.5,50.9,30.12,SW,225,1.1,1.8,76,0.00,,,0.00,WUHU216HW,2013-08-16 04:56:00,
2013-08-16 01:01:00,58.3,50.8,30.12,WSW,248,1.1,2.5,76,0.00,,,0.00,WUHU216HW,2013-08-16 05:01:00,
2013-08-16 01:06:00,58.1,50.6,30.12,SW,225,0.9,2.5,76,0.00,,,0.00,WUHU216HW,2013-08-16 05:06:00,
2013-08-16 01:11:00,58.0,50.8,30.12,WSW,248,1.3,2.2,77,0.00,,,0.00,WUHU216HW,2013-08-16 05:11:00,
2013-08-16 01:19:00,58.0,50.8,30.12,SW,225,0.7,2.2,77,0.00,,,0.00,WUHU216HW,2013-08-16 05:19:00,
2013-08-16 01:24:00,58.0,50.8,30.12,SW,225,0.9,1.8,77,0.00,,,0.00,WUHU216HW,2013-08-16 05:24:00,
2013-08-16 01:29:00,57.8,50.6,30.12,SW,225,1.8,2.7,77,0.00,,,0.00,WUHU216HW,2013-08-16 05:29:00,
2013-08-16 01:34:00,57.6,50.8,30.12,WSW,248,2.0,2.7,78,0.00,,,0.00,WUHU216HW,2013-08-16 05:34:00,
2013-08-16 01:39:00,57.6,50.8,30.12,SW,225,1.6,2.2,78,0.00,,,0.00,WUHU216HW,2013-08-16 05:39:00,
2013-08-16 01:44:00,57.6,50.8,30.12,SSW,203,0.9,2.2,78,0.00,,,0.00,WUHU216HW,2013-08-16 05:44:00,
2013-08-16 01:49:00,57.4,50.6,30.12,SW,225,2.5,2.5,78,0.00,,,0.00,WUHU216HW,2013-08-16 05:49:00,
2013-08-16 01:54:00,57.2,50.4,30.12,West,270,1.8,2.5,78,0.00,,,0.00,WUHU216HW,2013-08-16 05:54:00,
2013-08-16 01:59:00,57.1,50.2,30.12,WSW,248,2.2,2.9,78,0.00,,,0.00,WUHU216HW,2013-08-16 05:59:00,
2013-08-16 02:04:00,56.9,50.4,30.12,WSW,248,1.3,2.9,79,0.00,,,0.00,WUHU216HW,2013-08-16 06:04:00,
2013-08-16 02:09:00,56.5,50.0,30.12,SW,225,2.5,2.9,79,0.00,,,0.00,WUHU216HW,2013-08-16 06:09:00,
2013-08-16 02:14:00,56.5,50.0,30.12,WSW,248,1.3,2.9,79,0.00,,,0.00,WUHU216HW,2013-08-16 06:14:00,
2013-08-16 02:19:00,56.5,50.0,30.12,WSW,248,1.8,2.5,79,0.00,,,0.00,WUHU216HW,2013-08-16 06:19:00,
2013-08-16 02:24:00,56.5,50.0,30.12,West,270,1.1,2.5,79,0.00,,,0.00,WUHU216HW,2013-08-16 06:24:00,
2013-08-16 02:29:00,56.5,50.0,30.12,WSW,248,1.1,2.5,79,0.00,,,0.00,WUHU216HW,2013-08-16 06:29:00,
2013-08-16 02:34:00,56.5,50.4,30.12,WSW,248,1.1,2.0,80,0.00,,,0.00,WUHU216HW,2013-08-16 06:34:00,
2013-08-16 02:39:00,56.5,50.4,30.12,WSW,248,1.6,1.8,80,0.00,,,0.00,WUHU216HW,2013-08-16 06:39:00,
2013-08-16 02:44:00,56.5,50.4,30.11,WSW,248,1.1,1.8,80,0.00,,,0.00,WUHU216HW,2013-08-16 06:44:00,
2013-08-16 02:49:00,56.5,50.4,30.11,SW,225,1.3,2.0,80,0.00,,,0.00,WUHU216HW,2013-08-16 06:49:00,
2013-08-16 02:54:00,56.5,50.4,30.11,WSW,248,1.1,2.0,80,0.00,,,0.00,WUHU216HW,2013-08-16 06:54:00,
2013-08-16 02:59:00,56.3,50.2,30.12,WSW,248,1.1,2.0,80,0.00,,,0.00,WUHU216HW,2013-08-16 06:59:00,
2013-08-16 03:04:00,56.3,50.2,30.12,SW,225,1.1,1.8,80,0.00,,,0.00,WUHU216HW,2013-08-16 07:04:00,
2013-08-16 03:09:00,56.2,50.0,30.12,South,180,0.0,1.3,80,0.00,,,0.00,WUHU216HW,2013-08-16 07:09:00,
2013-08-16 03:14:00,56.2,50.0,30.12,SSW,203,1.1,1.3,80,0.00,,,0.00,WUHU216HW,2013-08-16 07:14:00,
2013-08-16 03:19:00,56.0,49.9,30.12,West,270,0.4,1.8,80,0.00,,,0.00,WUHU216HW,2013-08-16 07:19:00,
2013-08-16 03:24:00,55.8,49.7,30.12,SSW,203,1.1,1.8,80,0.00,,,0.00,WUHU216HW,2013-08-16 07:24:00,
2013-08-16 03:29:00,55.8,49.7,30.12,SSW,203,0.9,1.8,80,0.00,,,0.00,WUHU216HW,2013-08-16 07:29:00,
2013-08-16 03:34:00,55.8,49.7,30.12,SW,225,1.1,2.9,80,0.00,,,0.00,WUHU216HW,2013-08-16 07:34:00,
2013-08-16 03:39:00,55.8,49.7,30.12,SSW,203,2.7,2.9,80,0.00,,,0.00,WUHU216HW,2013-08-16 07:39:00,
2013-08-16 03:44:00,55.6,49.5,30.12,SW,225,1.1,2.7,80,0.00,,,0.00,WUHU216HW,2013-08-16 07:44:00,
2013-08-16 03:49:00,55.6,49.9,30.12,SSW,203,2.5,2.5,81,0.00,,,0.00,WUHU216HW,2013-08-16 07:49:00,
2013-08-16 03:54:00,55.3,49.1,30.12,SSW,203,1.1,2.7,80,0.00,,,0.00,WUHU216HW,2013-08-16 07:54:00,
2013-08-16 03:59:00,55.3,49.1,30.12,WSW,248,1.1,2.7,80,0.00,,,0.00,WUHU216HW,2013-08-16 07:59:00,
2013-08-16 04:04:00,55.1,49.0,30.12,West,270,1.1,2.5,80,0.00,,,0.00,WUHU216HW,2013-08-16 08:04:00,
2013-08-16 04:09:00,55.1,49.0,30.12,SW,225,1.6,2.2,80,0.00,,,0.00,WUHU216HW,2013-08-16 08:09:00,
2013-08-16 04:14:00,55.1,49.0,30.12,SW,225,1.1,2.2,80,0.00,,,0.00,WUHU216HW,2013-08-16 08:14:00,
2013-08-16 04:19:00,55.1,49.0,30.12,WSW,248,0.4,2.0,80,0.00,,,0.00,WUHU216HW,2013-08-16 08:19:00,
2013-08-16 04:24:00,55.1,49.0,30.12,WSW,248,0.7,2.0,80,0.00,,,0.00,WUHU216HW,2013-08-16 08:24:00,
2013-08-16 04:29:00,55.1,49.0,30.12,SW,225,2.5,2.5,80,0.00,,,0.00,WUHU216HW,2013-08-16 08:29:00,
2013-08-16 04:34:00,55.1,49.0,30.12,WSW,248,1.8,2.5,80,0.00,,,0.00,WUHU216HW,2013-08-16 08:34:00,
2013-08-16 04:39:00,55.1,49.3,30.12,SW,225,1.8,2.5,81,0.00,,,0.00,WUHU216HW,2013-08-16 08:39:00,
2013-08-16 04:44:00,55.1,49.3,30.12,SW,225,1.1,2.0,81,0.00,,,0.00,WUHU216HW,2013-08-16 08:44:00,
2013-08-16 04:49:00,55.1,49.3,30.12,SW,225,2.0,2.9,81,0.00,,,0.00,WUHU216HW,2013-08-16 08:49:00,
2013-08-16 04:54:00,54.9,49.5,30.12,WSW,248,1.8,3.1,82,0.00,,,0.00,WUHU216HW,2013-08-16 08:54:00,
2013-08-16 04:59:00,54.9,49.5,30.12,South,180,3.1,3.1,82,0.00,,,0.00,WUHU216HW,2013-08-16 08:59:00,
2013-08-16 05:04:00,54.7,49.3,30.12,WSW,248,1.8,3.1,82,0.00,,,0.00,WUHU216HW,2013-08-16 09:04:00,
2013-08-16 05:09:00,54.7,49.3,30.12,SW,225,0.9,3.4,82,0.00,,,0.00,WUHU216HW,2013-08-16 09:09:00,
2013-08-16 05:14:00,54.7,49.3,30.12,SSW,203,0.7,3.4,82,0.00,,,0.00,WUHU216HW,2013-08-16 09:14:00,
2013-08-16 05:19:00,54.9,49.5,30.12,SSW,203,2.0,2.5,82,0.00,,,0.00,WUHU216HW,2013-08-16 09:19:00,
2013-08-16 05:24:00,54.9,49.5,30.13,SSW,203,2.5,2.9,82,0.00,,,0.00,WUHU216HW,2013-08-16 09:24:00,
2013-08-16 05:29:00,54.7,49.3,30.13,South,180,1.8,2.9,82,0.00,,,0.00,WUHU216HW,2013-08-16 09:29:00,
2013-08-16 05:34:00,54.5,49.1,30.13,SSW,203,1.1,2.7,82,0.00,,,0.00,WUHU216HW,2013-08-16 09:34:00,
2013-08-16 05:39:00,54.5,49.1,30.13,NW,315,0.0,2.2,82,0.00,,,0.00,WUHU216HW,2013-08-16 09:39:00,
2013-08-16 05:44:00,54.5,49.1,30.13,SW,225,1.1,1.8,82,0.00,,,0.00,WUHU216HW,2013-08-16 09:44:00,
2013-08-16 05:49:00,54.7,49.3,30.13,SW,225,1.1,1.1,82,0.00,,,0.00,WUHU216HW,2013-08-16 09:49:00,
2013-08-16 05:54:00,54.7,49.3,30.13,SSW,203,0.4,1.6,82,0.00,,,0.00,WUHU216HW,2013-08-16 09:54:00,
2013-08-16 05:59:00,54.7,49.3,30.14,South,180,0.0,1.6,82,0.00,,,0.00,WUHU216HW,2013-08-16 09:59:00,
2013-08-16 06:04:00,54.9,49.5,30.14,NE,45,0.0,0.9,82,0.00,,,0.00,WUHU216HW,2013-08-16 10:04:00,
2013-08-16 06:09:00,54.9,49.5,30.14,West,270,0.0,0.7,82,0.00,,,0.00,WUHU216HW,2013-08-16 10:09:00,
2013-08-16 06:14:00,55.1,49.7,30.14,SSW,203,0.7,2.7,82,0.00,,,0.00,WUHU216HW,2013-08-16 10:14:00,
2013-08-16 06:19:00,54.9,49.5,30.14,SSW,203,1.6,2.7,82,0.00,,,0.00,WUHU216HW,2013-08-16 10:19:00,
2013-08-16 06:24:00,54.9,49.5,30.14,SSW,203,2.0,3.1,82,0.00,,,0.00,WUHU216HW,2013-08-16 10:24:00,
2013-08-16 06:29:00,54.7,49.3,30.14,WSW,248,2.9,3.1,82,0.00,,,0.00,WUHU216HW,2013-08-16 10:29:00,
2013-08-16 06:34:00,54.7,49.3,30.14,SSW,203,1.1,2.9,82,0.00,,,0.00,WUHU216HW,2013-08-16 10:34:00,
2013-08-16 06:39:00,54.7,49.3,30.14,West,270,1.3,2.9,82,0.00,,,0.00,WUHU216HW,2013-08-16 10:39:00,
2013-08-16 06:44:00,54.7,49.3,30.14,SSW,203,0.9,2.7,82,0.00,,,0.00,WUHU216HW,2013-08-16 10:44:00,
2013-08-16 06:49:00,54.7,49.6,30.14,SSE,158,1.1,2.2,83,0.00,,,0.00,WUHU216HW,2013-08-16 10:49:00,
2013-08-16 06:54:00,54.9,49.8,30.15,SE,135,0.0,2.2,83,0.00,,,0.00,WUHU216HW,2013-08-16 10:54:00,
2013-08-16 06:59:00,54.9,49.8,30.15,East,90,1.3,1.8,83,0.00,,,0.00,WUHU216HW,2013-08-16 10:59:00,
2013-08-16 07:04:00,55.1,50.0,30.15,SSE,158,1.3,1.3,83,0.00,,,0.00,WUHU216HW,2013-08-16 11:04:00,
2013-08-16 07:09:00,55.3,50.1,30.15,SW,225,0.7,2.0,83,0.00,,,0.00,WUHU216HW,2013-08-16 11:09:00,
2013-08-16 07:14:00,55.4,50.6,30.15,SSE,158,1.8,2.5,84,0.00,,,0.00,WUHU216HW,2013-08-16 11:14:00,
2013-08-16 07:19:00,55.6,50.8,30.15,SSW,203,1.3,2.5,84,0.00,,,0.00,WUHU216HW,2013-08-16 11:19:00,
2013-08-16 07:24:00,55.8,50.7,30.15,SW,225,1.6,2.0,83,0.00,,,0.00,WUHU216HW,2013-08-16 11:24:00,
2013-08-16 07:29:00,55.8,50.7,30.15,SSW,203,0.9,2.2,83,0.00,,,0.00,WUHU216HW,2013-08-16 11:29:00,
2013-08-16 07:34:00,56.0,51.1,30.15,SSW,203,1.1,2.2,84,0.00,,,0.00,WUHU216HW,2013-08-16 11:34:00,
2013-08-16 07:39:00,56.3,51.5,30.15,SW,225,2.2,2.5,84,0.00,,,0.00,WUHU216HW,2013-08-16 11:39:00,
2013-08-16 07:44:00,56.5,51.7,30.15,SSW,203,1.6,3.1,84,0.00,,,0.00,WUHU216HW,2013-08-16 11:44:00,
2013-08-16 07:49:00,56.7,51.8,30.15,SW,225,1.8,3.1,84,0.00,,,0.00,WUHU216HW,2013-08-16 11:49:00,
2013-08-16 07:54:00,56.9,52.0,30.15,WSW,248,0.9,2.9,84,0.00,,,0.00,WUHU216HW,2013-08-16 11:54:00,
2013-08-16 07:59:00,57.1,51.9,30.15,WSW,248,2.9,2.9,83,0.00,,,0.00,WUHU216HW,2013-08-16 11:59:00,
2013-08-16 08:04:00,57.2,52.1,30.15,SSW,203,2.7,3.8,83,0.00,,,0.00,WUHU216HW,2013-08-16 12:04:00,
2013-08-16 08:09:00,57.6,52.5,30.15,West,270,2.7,3.8,83,0.00,,,0.00,WUHU216HW,2013-08-16 12:09:00,
2013-08-16 08:14:00,58.1,53.0,30.15,WSW,248,1.6,3.8,83,0.00,,,0.00,WUHU216HW,2013-08-16 12:14:00,
2013-08-16 08:19:00,58.9,53.7,30.15,SSW,203,1.8,3.8,83,0.00,,,0.00,WUHU216HW,2013-08-16 12:19:00,
2013-08-16 08:24:00,59.6,54.5,30.16,WSW,248,2.2,4.0,83,0.00,,,0.00,WUHU216HW,2013-08-16 12:24:00,
2013-08-16 08:29:00,60.1,54.6,30.15,SSW,203,2.5,4.0,82,0.00,,,0.00,WUHU216HW,2013-08-16 12:29:00,
2013-08-16 08:34:00,60.5,54.7,30.15,South,180,1.3,2.7,81,0.00,,,0.00,WUHU216HW,2013-08-16 12:34:00,
2013-08-16 08:39:00,60.8,55.1,30.15,WNW,293,0.9,2.7,81,0.00,,,0.00,WUHU216HW,2013-08-16 12:39:00,
2013-08-16 08:44:00,61.0,55.2,30.15,SSE,158,1.6,2.5,81,0.00,,,0.00,WUHU216HW,2013-08-16 12:44:00,
2013-08-16 08:49:00,61.4,55.2,30.16,SSW,203,1.1,2.5,80,0.00,,,0.00,WUHU216HW,2013-08-16 12:49:00,
2013-08-16 08:54:00,61.6,55.4,30.16,West,270,1.1,1.8,80,0.00,,,0.00,WUHU216HW,2013-08-16 12:54:00,
2013-08-16 08:59:00,61.7,55.2,30.16,WNW,293,2.5,2.5,79,0.00,,,0.00,WUHU216HW,2013-08-16 12:59:00,
2013-08-16 09:04:00,62.1,55.5,30.16,SSW,203,0.2,3.4,79,0.00,,,0.00,WUHU216HW,2013-08-16 13:04:00,
2013-08-16 09:09:00,62.3,55.6,30.16,WSW,248,0.4,3.4,79,0.00,,,0.00,WUHU216HW,2013-08-16 13:09:00,
2013-08-16 09:14:00,62.6,56.0,30.16,WNW,293,1.8,3.8,79,0.00,,,0.00,WUHU216HW,2013-08-16 13:14:00,
2013-08-16 09:19:00,63.0,56.0,30.16,West,270,2.7,3.8,78,0.00,,,0.00,WUHU216HW,2013-08-16 13:19:00,
2013-08-16 09:24:00,63.4,56.3,30.16,WNW,293,2.7,4.0,78,0.00,,,0.00,WUHU216HW,2013-08-16 13:24:00,
2013-08-16 09:29:00,63.7,56.7,30.16,South,180,1.3,4.0,78,0.00,,,0.00,WUHU216HW,2013-08-16 13:29:00,
2013-08-16 09:34:00,64.1,57.1,30.17,South,180,1.6,3.6,78,0.00,,,0.00,WUHU216HW,2013-08-16 13:34:00,
2013-08-16 09:39:00,64.1,57.1,30.17,NNW,338,3.6,3.6,78,0.00,,,0.00,WUHU216HW,2013-08-16 13:39:00,
2013-08-16 09:44:00,64.4,57.1,30.17,WSW,248,1.1,3.6,77,0.00,,,0.00,WUHU216HW,2013-08-16 13:44:00,
2013-08-16 09:49:00,64.8,57.4,30.17,North,0,0.7,4.0,77,0.00,,,0.00,WUHU216HW,2013-08-16 13:49:00,
2013-08-16 09:54:00,65.0,57.6,30.17,NW,315,1.6,4.0,77,0.00,,,0.00,WUHU216HW,2013-08-16 13:54:00,
2013-08-16 09:59:00,65.2,57.8,30.17,NW,315,2.0,3.4,77,0.00,,,0.00,WUHU216HW,2013-08-16 13:59:00,
2013-08-16 10:04:00,65.5,58.2,30.17,NNW,338,1.3,5.4,77,0.00,,,0.00,WUHU216HW,2013-08-16 14:04:00,
2013-08-16 10:09:00,65.9,58.1,30.17,WNW,293,4.9,5.4,76,0.00,,,0.00,WUHU216HW,2013-08-16 14:09:00,
2013-08-16 10:14:00,66.1,58.2,30.17,West,270,3.4,6.7,76,0.00,,,0.00,WUHU216HW,2013-08-16 14:14:00,
2013-08-16 10:19:00,66.2,58.4,30.17,North,0,2.0,6.7,76,0.00,,,0.00,WUHU216HW,2013-08-16 14:19:00,
2013-08-16 10:24:00,66.6,58.4,30.17,West,270,5.6,5.6,75,0.00,,,0.00,WUHU216HW,2013-08-16 14:24:00,
2013-08-16 10:29:00,67.0,58.8,30.17,NNW,338,1.8,5.6,75,0.00,,,0.00,WUHU216HW,2013-08-16 14:29:00,
2013-08-16 10:34:00,67.3,59.1,30.17,NW,315,4.0,5.6,75,0.00,,,0.00,WUHU216HW,2013-08-16 14:34:00,
2013-08-16 10:39:00,67.7,59.1,30.17,NW,315,6.9,6.9,74,0.00,,,0.00,WUHU216HW,2013-08-16 14:39:00,
2013-08-16 10:44:00,68.0,59.5,30.17,NNW,338,3.4,6.9,74,0.00,,,0.00,WUHU216HW,2013-08-16 14:44:00,
2013-08-16 10:49:00,68.6,59.6,30.17,West,270,3.6,6.9,73,0.00,,,0.00,WUHU216HW,2013-08-16 14:49:00,
2013-08-16 10:54:00,69.1,59.7,30.17,NNW,338,4.0,8.5,72,0.00,,,0.00,WUHU216HW,2013-08-16 14:54:00,
2013-08-16 10:59:00,69.8,59.9,30.17,NNW,338,5.6,8.5,71,0.00,,,0.00,WUHU216HW,2013-08-16 14:59:00,
2013-08-16 11:04:00,70.6,60.3,30.17,NW,315,5.6,9.2,70,0.00,,,0.00,WUHU216HW,2013-08-16 15:04:00,
2013-08-16 11:09:00,70.9,60.2,30.17,NW,315,1.8,9.2,69,0.00,,,0.00,WUHU216HW,2013-08-16 15:09:00,
2013-08-16 11:14:00,70.9,59.9,30.17,NW,315,2.9,9.2,68,0.00,,,0.00,WUHU216HW,2013-08-16 15:14:00,
2013-08-16 11:19:00,71.1,59.6,30.17,NW,315,3.4,7.2,67,0.00,,,0.00,WUHU216HW,2013-08-16 15:19:00,
2013-08-16 11:24:00,70.9,59.0,30.17,WNW,293,3.6,5.6,66,0.00,,,0.00,WUHU216HW,2013-08-16 15:24:00,
2013-08-16 11:29:00,70.9,59.0,30.17,NW,315,1.8,6.7,66,0.00,,,0.00,WUHU216HW,2013-08-16 15:29:00,
2013-08-16 11:34:00,70.9,59.0,30.17,NW,315,5.4,6.7,66,0.00,,,0.00,WUHU216HW,2013-08-16 15:34:00,
2013-08-16 11:39:00,71.6,59.7,30.17,NNW,338,3.6,7.4,66,0.00,,,0.00,WUHU216HW,2013-08-16 15:39:00,
2013-08-16 11:44:00,72.2,60.2,30.17,WSW,248,5.4,7.4,66,0.00,,,0.00,WUHU216HW,2013-08-16 15:44:00,
2013-08-16 11:49:00,72.4,60.3,30.17,WNW,293,3.6,8.5,66,0.00,,,0.00,WUHU216HW,2013-08-16 15:49:00,
2013-08-16 11:54:00,72.2,59.8,30.17,WNW,293,2.9,8.5,65,0.00,,,0.00,WUHU216HW,2013-08-16 15:54:00,
2013-08-16 11:59:00,72.2,59.3,30.17,NW,315,5.6,7.6,64,0.00,,,0.00,WUHU216HW,2013-08-16 15:59:00,
2013-08-16 12:04:00,72.4,59.5,30.17,West,270,1.6,7.6,64,0.00,,,0.00,WUHU216HW,2013-08-16 16:04:00,
2013-08-16 12:09:00,72.7,59.8,30.17,SSW,203,6.3,6.3,64,0.00,,,0.00,WUHU216HW,2013-08-16 16:09:00,
2013-08-16 12:14:00,73.1,60.1,30.17,SSW,203,0.7,6.3,64,0.00,,,0.00,WUHU216HW,2013-08-16 16:14:00,
2013-08-16 12:19:00,72.7,59.4,30.17,NW,315,4.7,9.8,63,0.00,,,0.00,WUHU216HW,2013-08-16 16:19:00,
2013-08-16 12:24:00,73.1,59.7,30.16,NW,315,4.0,9.8,63,0.00,,,0.00,WUHU216HW,2013-08-16 16:24:00,
2013-08-16 12:29:00,74.0,60.1,30.17,NNW,338,1.8,4.9,62,0.00,,,0.00,WUHU216HW,2013-08-16 16:29:00,
2013-08-16 12:34:00,74.2,59.9,30.16,NW,315,2.5,4.9,61,0.00,,,0.00,WUHU216HW,2013-08-16 16:34:00,
2013-08-16 12:39:00,74.3,59.6,30.16,NNW,338,4.0,4.7,60,0.00,,,0.00,WUHU216HW,2013-08-16 16:39:00,
2013-08-16 12:44:00,74.0,59.2,30.17,WNW,293,2.9,6.3,60,0.00,,,0.00,WUHU216HW,2013-08-16 16:44:00,
2013-08-16 12:49:00,73.8,59.0,30.16,WNW,293,3.4,6.5,60,0.00,,,0.00,WUHU216HW,2013-08-16 16:49:00,
2013-08-16 12:54:00,74.0,59.2,30.16,North,0,3.4,6.9,60,0.00,,,0.00,WUHU216HW,2013-08-16 16:54:00,
2013-08-16 12:59:00,74.7,60.4,30.16,NW,315,0.4,6.9,61,0.00,,,0.00,WUHU216HW,2013-08-16 16:59:00,
2013-08-16 13:04:00,75.6,60.9,30.16,North,0,3.8,4.0,60,0.00,,,0.00,WUHU216HW,2013-08-16 17:04:00,
2013-08-16 13:09:00,75.4,59.7,30.17,WNW,293,5.4,5.4,58,0.00,,,0.00,WUHU216HW,2013-08-16 17:09:00,
2013-08-16 13:14:00,74.5,58.8,30.16,NNW,338,2.7,5.4,58,0.00,,,0.00,WUHU216HW,2013-08-16 17:14:00,
2013-08-16 13:19:00,74.5,58.8,30.16,North,0,3.1,5.4,58,0.00,,,0.00,WUHU216HW,2013-08-16 17:19:00,
2013-08-16 13:24:00,74.7,59.0,30.17,WNW,293,3.1,6.9,58,0.00,,,0.00,WUHU216HW,2013-08-16 17:24:00,
2013-08-16 13:29:00,74.9,59.1,30.16,NNW,338,3.8,6.9,58,0.00,,,0.00,WUHU216HW,2013-08-16 17:29:00,
2013-08-16 13:34:00,75.1,59.3,30.17,NNW,338,1.3,6.9,58,0.00,,,0.00,WUHU216HW,2013-08-16 17:34:00,
2013-08-16 13:39:00,74.9,58.6,30.16,NNE,23,1.3,6.3,57,0.00,,,0.00,WUHU216HW,2013-08-16 17:39:00,
2013-08-16 13:44:00,75.1,58.8,30.16,NNW,338,2.5,4.7,57,0.00,,,0.00,WUHU216HW,2013-08-16 17:44:00,
2013-08-16 13:49:00,75.8,59.5,30.16,NW,315,1.3,6.9,57,0.00,,,0.00,WUHU216HW,2013-08-16 17:49:00,
2013-08-16 13:54:00,76.3,59.4,30.16,North,0,3.1,7.6,56,0.00,,,0.00,WUHU216HW,2013-08-16 17:54:00,
2013-08-16 13:59:00,76.7,59.8,30.16,NNW,338,4.0,7.6,56,0.00,,,0.00,WUHU216HW,2013-08-16 17:59:00,
2013-08-16 14:04:00,76.5,59.1,30.16,NNW,338,2.2,7.4,55,0.00,,,0.00,WUHU216HW,2013-08-16 18:04:00,
2013-08-16 14:09:00,76.0,58.6,30.17,West,270,4.5,7.4,55,0.00,,,0.00,WUHU216HW,2013-08-16 18:09:00,
2013-08-16 14:14:00,76.5,59.6,30.16,NW,315,7.4,7.4,56,0.00,,,0.00,WUHU216HW,2013-08-16 18:14:00,
2013-08-16 14:19:00,77.4,60.0,30.16,NW,315,6.3,8.5,55,0.00,,,0.00,WUHU216HW,2013-08-16 18:19:00,
2013-08-16 14:24:00,78.5,60.4,30.17,NW,315,4.5,8.5,54,0.00,,,0.00,WUHU216HW,2013-08-16 18:24:00,
2013-08-16 14:29:00,79.6,60.9,30.16,North,0,1.1,7.4,53,0.00,,,0.00,WUHU216HW,2013-08-16 18:29:00,
2013-08-16 14:34:00,80.6,61.4,30.16,WNW,293,0.9,7.4,52,0.00,,,0.00,WUHU216HW,2013-08-16 18:34:00,
2013-08-16 14:39:00,81.5,61.7,30.16,NW,315,5.6,6.0,51,0.00,,,0.00,WUHU216HW,2013-08-16 18:39:00,
2013-08-16 14:44:00,80.8,60.5,30.16,NNW,338,2.2,6.0,50,0.00,,,0.00,WUHU216HW,2013-08-16 18:44:00,
2013-08-16 14:49:00,80.3,59.9,30.16,WNW,293,3.6,6.5,50,0.00,,,0.00,WUHU216HW,2013-08-16 18:49:00,
2013-08-16 14:54:00,79.9,59.7,30.16,NW,315,1.3,6.5,50,0.00,,,0.00,WUHU216HW,2013-08-16 18:54:00,
2013-08-16 14:59:00,80.3,59.9,30.16,NW,315,4.7,4.7,50,0.00,,,0.00,WUHU216HW,2013-08-16 18:59:00,
2013-08-16 15:04:00,79.9,59.0,30.16,NW,315,5.1,6.7,49,0.00,,,0.00,WUHU216HW,2013-08-16 19:04:00,
2013-08-16 15:09:00,80.3,59.4,30.16,WSW,248,0.9,6.7,49,0.00,,,0.00,WUHU216HW,2013-08-16 19:09:00,
2013-08-16 15:14:00,80.5,59.5,30.16,NNW,338,2.0,6.7,49,0.00,,,0.00,WUHU216HW,2013-08-16 19:14:00,
2013-08-16 15:19:00,80.8,59.9,30.16,NW,315,3.1,6.7,49,0.00,,,0.00,WUHU216HW,2013-08-16 19:19:00,
2013-08-16 15:24:00,81.7,60.0,30.16,WSW,248,1.8,5.4,48,0.00,,,0.00,WUHU216HW,2013-08-16 19:24:00,
2013-08-16 15:29:00,83.0,61.2,30.16,NW,315,3.6,5.4,48,0.00,,,0.00,WUHU216HW,2013-08-16 19:29:00,
2013-08-16 15:34:00,83.3,60.3,30.16,NNW,338,3.4,6.3,46,0.00,,,0.00,WUHU216HW,2013-08-16 19:34:00,
2013-08-16 15:39:00,83.5,60.5,30.16,North,0,3.8,6.3,46,0.00,,,0.00,WUHU216HW,2013-08-16 19:39:00,
2013-08-16 15:44:00,83.7,60.0,30.16,NNW,338,0.7,5.8,45,0.00,,,0.00,WUHU216HW,2013-08-16 19:44:00,
2013-08-16 15:49:00,83.9,60.2,30.16,WSW,248,1.1,3.4,45,0.00,,,0.00,WUHU216HW,2013-08-16 19:49:00,
2013-08-16 15:54:00,83.3,59.1,30.16,NW,315,3.6,5.4,44,0.00,,,0.00,WUHU216HW,2013-08-16 19:54:00,
2013-08-16 15:59:00,83.3,59.8,30.16,NNW,338,0.4,5.4,45,0.00,,,0.00,WUHU216HW,2013-08-16 19:59:00,
2013-08-16 16:04:00,83.3,59.1,30.16,NNW,338,4.7,8.5,44,0.00,,,0.00,WUHU216HW,2013-08-16 20:04:00,
2013-08-16 16:09:00,82.6,58.4,30.16,NW,315,4.7,8.5,44,0.00,,,0.00,WUHU216HW,2013-08-16 20:09:00,
2013-08-16 16:14:00,81.7,58.2,30.16,West,270,2.9,5.4,45,0.00,,,0.00,WUHU216HW,2013-08-16 20:14:00,
2013-08-16 16:19:00,81.7,58.2,30.15,NNW,338,0.9,5.1,45,0.00,,,0.00,WUHU216HW,2013-08-16 20:19:00,
2013-08-16 16:24:00,82.3,58.7,30.16,North,0,5.4,5.6,45,0.00,,,0.00,WUHU216HW,2013-08-16 20:24:00,
2013-08-16 16:29:00,82.1,58.0,30.16,North,0,2.0,5.6,44,0.00,,,0.00,WUHU216HW,2013-08-16 20:29:00,
2013-08-16 16:34:00,82.4,58.9,30.16,North,0,4.0,5.4,45,0.00,,,0.00,WUHU216HW,2013-08-16 20:34:00,
2013-08-16 16:39:00,82.4,58.9,30.15,WNW,293,0.9,4.0,45,0.00,,,0.00,WUHU216HW,2013-08-16 20:39:00,
2013-08-16 16:44:00,83.0,59.4,30.15,NNW,338,4.3,4.3,45,0.00,,,0.00,WUHU216HW,2013-08-16 20:44:00,
2013-08-16 16:49:00,83.7,59.4,30.15,NNW,338,1.8,5.6,44,0.00,,,0.00,WUHU216HW,2013-08-16 20:49:00,
2013-08-16 16:54:00,83.9,59.6,30.16,NNW,338,2.7,5.6,44,0.00,,,0.00,WUHU216HW,2013-08-16 20:54:00,
2013-08-16 16:59:00,83.9,59.0,30.16,NW,315,4.7,6.0,43,0.00,,,0.00,WUHU216HW,2013-08-16 20:59:00,
2013-08-16 17:04:00,83.7,58.8,30.16,NNW,338,1.6,6.0,43,0.00,,,0.00,WUHU216HW,2013-08-16 21:04:00,
2013-08-16 17:09:00,83.3,57.9,30.16,NNW,338,3.4,5.6,42,0.00,,,0.00,WUHU216HW,2013-08-16 21:09:00,
2013-08-16 17:14:00,82.8,56.7,30.16,NNW,338,0.9,5.6,41,0.00,,,0.00,WUHU216HW,2013-08-16 21:14:00,
2013-08-16 17:19:00,81.9,55.9,30.16,NW,315,1.1,6.3,41,0.00,,,0.00,WUHU216HW,2013-08-16 21:19:00,
2013-08-16 17:24:00,81.5,56.8,30.16,NW,315,3.1,6.3,43,0.00,,,0.00,WUHU216HW,2013-08-16 21:24:00,
2013-08-16 17:29:00,81.7,57.6,30.16,NNW,338,0.9,4.7,44,0.00,,,0.00,WUHU216HW,2013-08-16 21:29:00,
2013-08-16 17:34:00,82.3,56.9,30.16,NW,315,4.0,4.7,42,0.00,,,0.00,WUHU216HW,2013-08-16 21:34:00,
2013-08-16 17:39:00,82.4,58.2,30.16,West,270,3.1,4.7,44,0.00,,,0.00,WUHU216HW,2013-08-16 21:39:00,
2013-08-16 17:44:00,82.6,57.8,30.16,WNW,293,2.5,5.4,43,0.00,,,0.00,WUHU216HW,2013-08-16 21:44:00,
2013-08-16 17:49:00,82.6,56.6,30.16,WNW,293,3.1,6.3,41,0.00,,,0.00,WUHU216HW,2013-08-16 21:49:00,
2013-08-16 17:54:00,82.3,56.3,30.16,NNW,338,3.4,6.3,41,0.00,,,0.00,WUHU216HW,2013-08-16 21:54:00,
2013-08-16 17:59:00,81.9,56.5,30.16,NW,315,3.8,4.7,42,0.00,,,0.00,WUHU216HW,2013-08-16 21:59:00,
2013-08-16 18:04:00,81.0,55.7,30.16,West,270,4.7,5.6,42,0.00,,,0.00,WUHU216HW,2013-08-16 22:04:00,
2013-08-16 18:09:00,80.6,56.6,30.16,West,270,4.0,5.6,44,0.00,,,0.00,WUHU216HW,2013-08-16 22:09:00,
2013-08-16 18:14:00,80.3,55.1,30.17,NW,315,5.6,5.6,42,0.00,,,0.00,WUHU216HW,2013-08-16 22:14:00,
2013-08-16 18:19:00,79.4,54.9,30.17,NW,315,2.2,6.3,43,0.00,,,0.00,WUHU216HW,2013-08-16 22:19:00,
2013-08-16 18:24:00,79.2,56.0,30.16,NW,315,4.3,6.3,45,0.00,,,0.00,WUHU216HW,2013-08-16 22:24:00,
2013-08-16 18:29:00,79.6,55.6,30.17,WNW,293,3.1,4.5,44,0.00,,,0.00,WUHU216HW,2013-08-16 22:29:00,
2013-08-16 18:34:00,79.2,56.0,30.17,NW,315,2.5,4.5,45,0.00,,,0.00,WUHU216HW,2013-08-16 22:34:00,
2013-08-16 18:39:00,79.6,56.9,30.17,NW,315,3.4,4.5,46,0.00,,,0.00,WUHU216HW,2013-08-16 22:39:00,
2013-08-16 18:44:00,79.6,55.1,30.17,NW,315,4.0,4.7,43,0.00,,,0.00,WUHU216HW,2013-08-16 22:44:00,
2013-08-16 18:49:00,78.8,55.6,30.17,NW,315,2.5,4.7,45,0.00,,,0.00,WUHU216HW,2013-08-16 22:49:00,
2013-08-16 18:54:00,78.8,55.6,30.17,NW,315,2.9,4.0,45,0.00,,,0.00,WUHU216HW,2013-08-16 22:54:00,
2013-08-16 18:59:00,78.3,55.7,30.16,NW,315,2.5,4.0,46,0.00,,,0.00,WUHU216HW,2013-08-16 22:59:00,
2013-08-16 19:04:00,78.1,55.6,30.17,West,270,2.7,4.0,46,0.00,,,0.00,WUHU216HW,2013-08-16 23:04:00,
2013-08-16 19:09:00,78.1,56.2,30.17,West,270,2.7,4.0,47,0.00,,,0.00,WUHU216HW,2013-08-16 23:09:00,
2013-08-16 19:14:00,78.5,55.9,30.17,NW,315,2.2,4.0,46,0.00,,,0.00,WUHU216HW,2013-08-16 23:14:00,
2013-08-16 19:19:00,78.3,56.3,30.17,WSW,248,2.2,3.4,47,0.00,,,0.00,WUHU216HW,2013-08-16 23:19:00,
2013-08-16 19:24:00,78.1,56.2,30.17,WNW,293,2.0,3.4,47,0.00,,,0.00,WUHU216HW,2013-08-16 23:24:00,
2013-08-16 19:29:00,77.4,56.2,30.17,NW,315,2.5,3.4,48,0.00,,,0.00,WUHU216HW,2013-08-16 23:29:00,
2013-08-16 19:34:00,77.4,56.8,30.17,WNW,293,2.5,3.4,49,0.00,,,0.00,WUHU216HW,2013-08-16 23:34:00,
2013-08-16 19:39:00,77.4,56.8,30.17,West,270,2.0,2.5,49,0.00,,,0.00,WUHU216HW,2013-08-16 23:39:00,
2013-08-16 19:44:00,77.4,56.8,30.17,WNW,293,2.2,2.5,49,0.00,,,0.00,WUHU216HW,2013-08-16 23:44:00,
2013-08-16 19:49:00,76.7,56.2,30.17,WNW,293,1.8,2.5,49,0.00,,,0.00,WUHU216HW,2013-08-16 23:49:00,
2013-08-16 19:54:00,76.1,56.3,30.18,NW,315,0.9,2.5,50,0.00,,,0.00,WUHU216HW,2013-08-16 23:54:00,
2013-08-16 19:59:00,76.0,56.1,30.18,WNW,293,0.9,1.8,50,0.00,,,0.00,WUHU216HW,2013-08-16 23:59:00,
2013-08-16 20:04:00,75.8,56.4,30.18,NNW,338,0.7,1.6,51,0.00,,,0.00,WUHU216HW,2013-08-17 00:04:00,
2013-08-16 20:09:00,75.6,56.3,30.18,NNW,338,0.4,1.3,51,0.00,,,0.00,WUHU216HW,2013-08-17 00:09:00,
2013-08-16 20:14:00,75.2,56.4,30.18,WSW,248,0.0,1.1,52,0.00,,,0.00,WUHU216HW,2013-08-17 00:14:00,
2013-08-16 20:19:00,75.1,56.3,30.18,SW,225,0.0,0.4,52,0.00,,,0.00,WUHU216HW,2013-08-17 00:19:00,
2013-08-16 20:24:00,74.5,56.3,30.18,SW,225,0.0,0.0,53,0.00,,,0.00,WUHU216HW,2013-08-17 00:24:00,
2013-08-16 20:29:00,74.0,56.2,30.18,SW,225,0.0,0.0,54,0.00,,,0.00,WUHU216HW,2013-08-17 00:29:00,
2013-08-16 20:34:00,73.4,56.2,30.18,SW,225,0.0,0.0,55,0.00,,,0.00,WUHU216HW,2013-08-17 00:34:00,
2013-08-16 20:39:00,72.9,55.7,30.18,SW,225,0.0,0.0,55,0.00,,,0.00,WUHU216HW,2013-08-17 00:39:00,
2013-08-16 20:44:00,72.4,55.7,30.18,SW,225,0.0,0.0,56,0.00,,,0.00,WUHU216HW,2013-08-17 00:44:00,
2013-08-16 20:49:00,71.8,55.7,30.18,SSW,203,0.0,0.0,57,0.00,,,0.00,WUHU216HW,2013-08-17 00:49:00,
2013-08-16 20:54:00,71.5,55.9,30.18,SSW,203,0.0,0.0,58,0.00,,,0.00,WUHU216HW,2013-08-17 00:54:00,
2013-08-16 20:59:00,70.9,55.9,30.19,SSW,203,0.0,0.0,59,0.00,,,0.00,WUHU216HW,2013-08-17 00:59:00,
2013-08-16 21:04:00,70.2,55.3,30.19,SW,225,0.0,0.0,59,0.00,,,0.00,WUHU216HW,2013-08-17 01:04:00,
2013-08-16 21:09:00,69.5,55.1,30.19,SW,225,0.0,0.0,60,0.00,,,0.00,WUHU216HW,2013-08-17 01:09:00,
2013-08-16 21:14:00,68.9,55.0,30.19,SSW,203,0.0,0.0,61,0.00,,,0.00,WUHU216HW,2013-08-17 01:14:00,
2013-08-16 21:19:00,68.6,54.6,30.19,SSW,203,0.0,0.0,61,0.00,,,0.00,WUHU216HW,2013-08-17 01:19:00,
2013-08-16 21:24:00,68.2,54.7,30.19,SSW,203,0.0,0.0,62,0.00,,,0.00,WUHU216HW,2013-08-17 01:24:00,
2013-08-16 21:29:00,68.0,54.9,30.19,SE,135,0.0,0.0,63,0.00,,,0.00,WUHU216HW,2013-08-17 01:29:00,
2013-08-16 21:34:00,67.7,54.6,30.19,SE,135,0.0,0.0,63,0.00,,,0.00,WUHU216HW,2013-08-17 01:34:00,
2013-08-16 21:39:00,67.3,54.7,30.19,SSE,158,0.0,0.0,64,0.00,,,0.00,WUHU216HW,2013-08-17 01:39:00,
2013-08-16 21:44:00,67.1,54.6,30.19,South,180,0.0,0.0,64,0.00,,,0.00,WUHU216HW,2013-08-17 01:44:00,
2013-08-16 21:49:00,66.6,54.5,30.20,South,180,0.0,0.0,65,0.00,,,0.00,WUHU216HW,2013-08-17 01:49:00,
2013-08-16 21:54:00,66.2,54.1,30.20,SSW,203,0.0,0.0,65,0.00,,,0.00,WUHU216HW,2013-08-17 01:54:00,
2013-08-16 21:59:00,65.9,53.7,30.20,South,180,0.0,0.0,65,0.00,,,0.00,WUHU216HW,2013-08-17 01:59:00,
2013-08-16 22:04:00,65.7,54.0,30.20,ESE,113,0.0,0.0,66,0.00,,,0.00,WUHU216HW,2013-08-17 02:04:00,
2013-08-16 22:09:00,65.3,54.1,30.20,ESE,113,0.0,0.0,67,0.00,,,0.00,WUHU216HW,2013-08-17 02:09:00,
2013-08-16 22:14:00,65.2,53.9,30.20,SE,135,0.0,0.0,67,0.00,,,0.00,WUHU216HW,2013-08-17 02:14:00,
2013-08-16 22:19:00,64.8,53.6,30.20,SE,135,0.0,0.0,67,0.00,,,0.00,WUHU216HW,2013-08-17 02:19:00,
2013-08-16 22:24:00,64.6,53.8,30.20,South,180,0.0,0.0,68,0.00,,,0.00,WUHU216HW,2013-08-17 02:24:00,
2013-08-16 22:29:00,64.4,53.6,30.20,West,270,0.0,0.7,68,0.00,,,0.00,WUHU216HW,2013-08-17 02:29:00,
2013-08-16 22:34:00,64.1,53.7,30.20,West,270,0.0,0.7,69,0.00,,,0.00,WUHU216HW,2013-08-17 02:34:00,
2013-08-16 22:39:00,63.7,53.4,30.20,SW,225,0.0,0.0,69,0.00,,,0.00,WUHU216HW,2013-08-17 02:39:00,
2013-08-16 22:44:00,63.5,53.6,30.20,South,180,0.0,0.0,70,0.00,,,0.00,WUHU216HW,2013-08-17 02:44:00,
2013-08-16 22:49:00,63.4,53.5,30.20,South,180,0.0,0.0,70,0.00,,,0.00,WUHU216HW,2013-08-17 02:49:00,
2013-08-16 22:54:00,63.0,53.1,30.20,ENE,68,0.4,0.7,70,0.00,,,0.00,WUHU216HW,2013-08-17 02:54:00,
2013-08-16 22:59:00,62.8,53.3,30.20,ENE,68,0.0,0.7,71,0.00,,,0.00,WUHU216HW,2013-08-17 02:59:00,
2013-08-16 23:04:00,62.5,52.9,30.20,NNW,338,0.4,0.7,71,0.00,,,0.00,WUHU216HW,2013-08-17 03:04:00,
2013-08-16 23:09:00,62.3,53.1,30.20,NNW,338,0.0,0.7,72,0.00,,,0.00,WUHU216HW,2013-08-17 03:09:00,
2013-08-16 23:14:00,62.1,53.0,30.20,NNW,338,0.0,0.4,72,0.00,,,0.00,WUHU216HW,2013-08-17 03:14:00,
2013-08-16 23:19:00,62.1,53.4,30.20,NNW,338,0.0,0.0,73,0.00,,,0.00,WUHU216HW,2013-08-17 03:19:00,
2013-08-16 23:24:00,61.9,52.8,30.20,NNW,338,0.0,0.0,72,0.00,,,0.00,WUHU216HW,2013-08-17 03:24:00,
2013-08-16 23:29:00,61.9,52.8,30.20,SSW,203,0.0,0.0,72,0.00,,,0.00,WUHU216HW,2013-08-17 03:29:00,
2013-08-16 23:34:00,61.9,53.2,30.20,South,180,0.0,0.0,73,0.00,,,0.00,WUHU216HW,2013-08-17 03:34:00,
2013-08-16 23:39:00,61.7,53.0,30.20,South,180,0.0,0.0,73,0.00,,,0.00,WUHU216HW,2013-08-17 03:39:00,
2013-08-16 23:44:00,61.6,52.8,30.20,South,180,0.0,0.0,73,0.00,,,0.00,WUHU216HW,2013-08-17 03:44:00,
2013-08-16 23:49:00,61.6,52.8,30.20,SSW,203,0.0,0.0,73,0.00,,,0.00,WUHU216HW,2013-08-17 03:49:00,
2013-08-16 23:54:00,61.4,52.7,30.20,SSW,203,0.0,0.0,73,0.00,,,0.00,WUHU216HW,2013-08-17 03:54:00,
2013-08-16 23:59:00,61.2,52.6,30.20,WSW,248,0.4,1.1,73,0.00,,,0.00,WUHU216HW,2013-08-17 03:59:00,